createdAt,value
2023-05-11T00:00:33.501Z,10.85
2023-05-11T00:02:59.952Z,14.35
2023-05-11T00:05:26.555Z,11.57
2023-05-11T00:07:52.931Z,11.27
2023-05-11T00:10:19.553Z,14.82
2023-05-11T00:12:46.060Z,12.45
2023-05-11T00:15:12.477Z,12.80
2023-05-11T00:17:38.871Z,13.85
2023-05-11T00:20:06.212Z,15.80
2023-05-11T00:22:32.573Z,12.25
2023-05-11T00:24:58.958Z,13.57
2023-05-11T00:27:25.560Z,12.50
2023-05-11T00:29:52.076Z,12.30
2023-05-11T00:32:18.467Z,13.00
2023-05-11T00:34:44.888Z,13.27
2023-05-11T00:37:11.316Z,12.95
2023-05-11T00:39:40.409Z,12.30
2023-05-11T00:42:06.954Z,14.88
2023-05-11T00:44:33.346Z,19.63
2023-05-11T00:46:59.915Z,13.88
2023-05-11T00:49:26.792Z,15.05
2023-05-11T00:51:53.337Z,15.55
2023-05-11T00:54:20.395Z,14.80
2023-05-11T00:56:48.279Z,16.17
2023-05-11T00:59:14.742Z,16.63
2023-05-11T01:01:41.256Z,12.77
2023-05-11T01:04:07.875Z,15.02
2023-05-11T01:06:47.525Z,16.25
2023-05-11T01:09:25.264Z,14.63
2023-05-11T01:12:00.284Z,14.27
2023-05-11T01:14:48.436Z,19.67
2023-05-11T01:17:25.583Z,14.75
2023-05-11T01:19:57.591Z,17.77
2023-05-11T01:22:36.574Z,14.93
2023-05-11T01:25:21.838Z,13.68
2023-05-11T01:28:25.942Z,14.52
2023-05-11T01:31:01.781Z,18.08
2023-05-11T01:33:32.776Z,15.32
2023-05-11T01:36:05.345Z,15.13
2023-05-11T01:38:38.630Z,14.82
2023-05-11T01:41:12.135Z,15.02
2023-05-11T01:43:40.846Z,17.35
2023-05-11T01:46:10.284Z,16.25
2023-05-11T01:48:40.727Z,15.00
2023-05-11T01:51:08.981Z,14.95
2023-05-11T01:53:37.649Z,17.52
2023-05-11T01:56:05.941Z,15.32
2023-05-11T01:58:35.879Z,15.77
2023-05-11T02:01:03.601Z,15.52
2023-05-11T02:03:32.822Z,15.77
2023-05-11T02:06:01.042Z,16.17
2023-05-11T02:08:31.166Z,15.52
2023-05-11T02:10:59.210Z,18.85
2023-05-11T02:13:27.418Z,15.77
2023-05-11T02:15:57.033Z,18.27
2023-05-11T02:18:24.431Z,18.15
2023-05-11T02:20:52.176Z,16.20
2023-05-11T02:23:20.502Z,19.63
2023-05-11T02:25:47.592Z,17.02
2023-05-11T02:28:13.970Z,21.77
2023-05-11T02:30:45.885Z,17.35
2023-05-11T02:33:17.765Z,21.17
2023-05-11T02:35:44.831Z,16.80
2023-05-11T02:38:12.463Z,18.13
2023-05-11T02:40:45.756Z,16.92
2023-05-11T02:43:15.612Z,18.77
2023-05-11T02:45:44.505Z,18.45
2023-05-11T02:48:21.390Z,16.45
2023-05-11T02:50:49.941Z,16.48
2023-05-11T02:53:17.540Z,16.10
2023-05-11T02:55:44.036Z,15.40
2023-05-11T02:58:11.176Z,15.88
2023-05-11T03:00:39.499Z,12.32
2023-05-11T03:03:06.281Z,12.07
2023-05-11T03:05:32.764Z,11.35
2023-05-11T03:07:59.960Z,12.02
2023-05-11T03:10:27.774Z,10.13
2023-05-11T03:12:54.408Z,10.63
2023-05-11T03:15:21.714Z,10.45
2023-05-11T03:17:50.122Z,12.45
2023-05-11T03:20:17.587Z,10.27
2023-05-11T03:22:45.758Z,12.25
2023-05-11T03:25:12.547Z,11.15
2023-05-11T03:27:41.912Z,10.15
2023-05-11T03:30:09.613Z,9.82
2023-05-11T03:32:36.514Z,10.38
2023-05-11T03:35:03.123Z,10.53
2023-05-11T03:37:31.214Z,9.63
2023-05-11T03:39:59.293Z,9.68
2023-05-11T03:42:27.193Z,10.75
2023-05-11T03:44:58.368Z,10.75
2023-05-11T03:47:26.228Z,11.20
2023-05-11T03:49:53.434Z,9.95
2023-05-11T03:52:21.168Z,15.30
2023-05-11T03:54:47.664Z,11.67
2023-05-11T03:57:14.968Z,9.93
2023-05-11T03:59:41.335Z,10.10
2023-05-11T04:02:08.367Z,9.43
2023-05-11T04:04:34.905Z,9.18
2023-05-11T04:07:01.392Z,11.80
2023-05-11T04:09:27.736Z,9.48
2023-05-11T04:11:54.120Z,10.03
2023-05-11T04:14:23.142Z,9.13
2023-05-11T04:16:49.497Z,11.27
2023-05-11T04:19:16.608Z,9.07
2023-05-11T04:21:42.977Z,9.00
2023-05-11T04:24:09.358Z,9.27
2023-05-11T04:26:35.712Z,12.37
2023-05-11T04:29:02.095Z,9.07
2023-05-11T04:31:30.280Z,9.10
2023-05-11T04:33:56.723Z,10.00
2023-05-11T04:36:23.077Z,8.87
2023-05-11T04:38:49.442Z,10.48
2023-05-11T04:41:15.924Z,8.20
2023-05-11T04:43:42.294Z,9.67
2023-05-11T04:46:08.633Z,7.90
2023-05-11T04:48:34.985Z,14.13
2023-05-11T04:51:04.103Z,8.23
2023-05-11T04:53:30.831Z,11.25
2023-05-11T04:55:57.322Z,9.27
2023-05-11T04:58:23.705Z,8.10
2023-05-11T05:00:50.353Z,8.80
2023-05-11T05:03:16.805Z,8.30
2023-05-11T05:05:43.179Z,8.77
2023-05-11T05:08:09.563Z,8.57
2023-05-11T05:10:35.911Z,8.33
2023-05-11T05:13:02.284Z,9.17
2023-05-11T05:15:28.683Z,8.30
2023-05-11T05:17:55.112Z,9.17
2023-05-11T05:20:21.516Z,9.90
2023-05-11T05:22:47.871Z,11.07
2023-05-11T05:25:14.246Z,13.15
2023-05-11T05:27:40.617Z,7.80
2023-05-11T05:30:07.501Z,10.65
2023-05-11T05:32:33.888Z,12.10
2023-05-11T05:35:00.342Z,13.57
2023-05-11T05:37:26.705Z,9.87
2023-05-11T05:39:53.072Z,11.63
2023-05-11T05:42:19.422Z,13.20
2023-05-11T05:44:45.910Z,8.00
2023-05-11T05:47:12.302Z,8.57
2023-05-11T05:49:38.673Z,7.65
2023-05-11T05:52:05.012Z,11.10
2023-05-11T05:54:31.370Z,10.45
2023-05-11T05:56:57.737Z,9.57
2023-05-11T05:59:24.392Z,9.00
2023-05-11T06:01:51.374Z,9.10
2023-05-11T06:04:17.830Z,10.57
2023-05-11T06:06:44.481Z,7.75
2023-05-11T06:09:10.864Z,12.88
2023-05-11T06:11:38.133Z,8.82
2023-05-11T06:14:04.501Z,12.50
2023-05-11T06:16:31.115Z,10.13
2023-05-11T06:18:57.613Z,11.05
2023-05-11T06:21:24.025Z,11.48
2023-05-11T06:23:50.378Z,11.52
2023-05-11T06:26:17.053Z,8.55
2023-05-11T06:28:43.411Z,9.90
2023-05-11T06:31:09.899Z,11.98
2023-05-11T06:33:36.361Z,9.57
2023-05-11T06:36:06.824Z,7.82
2023-05-11T06:38:34.240Z,8.07
2023-05-11T06:41:00.657Z,14.57
2023-05-11T06:43:27.025Z,7.40
2023-05-11T06:45:53.476Z,7.75
2023-05-11T06:48:20.091Z,8.60
2023-05-11T06:50:46.514Z,6.15
2023-05-11T06:53:13.520Z,9.80
2023-05-11T06:55:39.904Z,8.30
2023-05-11T06:58:06.295Z,6.30
2023-05-11T07:00:32.658Z,8.15
2023-05-11T07:02:59.094Z,8.05
2023-05-11T07:05:25.499Z,9.60
2023-05-11T07:07:51.972Z,11.88
2023-05-11T07:10:18.611Z,10.32
2023-05-11T07:12:45.322Z,6.95
2023-05-11T07:15:12.399Z,6.97
2023-05-11T07:17:38.798Z,9.50
2023-05-11T07:20:05.872Z,10.25
2023-05-11T07:22:32.272Z,5.22
2023-05-11T07:25:00.456Z,6.57
2023-05-11T07:27:26.821Z,11.60
2023-05-11T07:29:53.178Z,4.40
2023-05-11T07:32:19.535Z,5.45
2023-05-11T07:34:45.895Z,8.65
2023-05-11T07:37:12.284Z,9.05
2023-05-11T07:39:38.675Z,8.38
2023-05-11T07:42:05.052Z,11.48
2023-05-11T07:44:31.431Z,6.75
2023-05-11T07:46:58.544Z,7.70
2023-05-11T07:49:31.538Z,5.50
2023-05-11T07:52:09.132Z,5.60
2023-05-11T07:54:35.534Z,8.20
2023-05-11T07:57:02.108Z,6.47
2023-05-11T07:59:28.468Z,8.43
2023-05-11T08:01:54.894Z,6.50
2023-05-11T08:04:21.261Z,13.98
2023-05-11T08:06:47.636Z,6.45
2023-05-11T08:09:14.939Z,5.88
2023-05-11T08:11:41.828Z,5.30
2023-05-11T08:14:08.208Z,7.47
2023-05-11T08:16:36.999Z,11.48
2023-05-11T08:19:03.586Z,5.30
2023-05-11T08:21:30.536Z,7.38
2023-05-11T08:23:56.920Z,7.78
2023-05-11T08:26:23.260Z,8.55
2023-05-11T08:28:49.628Z,4.63
2023-05-11T08:31:18.459Z,5.40
2023-05-11T08:33:45.165Z,9.02
2023-05-11T08:36:13.502Z,8.95
2023-05-11T08:38:40.333Z,5.18
2023-05-11T08:41:07.673Z,7.38
2023-05-11T08:43:39.682Z,8.77
2023-05-11T08:46:07.852Z,5.40
2023-05-11T08:48:34.379Z,7.75
2023-05-11T08:51:02.120Z,5.13
2023-05-11T08:53:28.829Z,6.15
2023-05-11T08:55:58.147Z,9.43
2023-05-11T08:58:24.792Z,5.68
2023-05-11T09:00:52.005Z,11.25
2023-05-11T09:03:19.512Z,9.25
2023-05-11T09:05:47.282Z,9.57
2023-05-11T09:08:14.704Z,4.78
2023-05-11T09:10:42.367Z,4.90
2023-05-11T09:13:08.780Z,6.88
2023-05-11T09:15:38.121Z,4.97
2023-05-11T09:18:05.485Z,6.90
2023-05-11T09:20:33.411Z,4.93
2023-05-11T09:23:00.431Z,7.57
2023-05-11T09:25:31.741Z,8.23
2023-05-11T09:27:59.515Z,6.75
2023-05-11T09:30:25.983Z,5.82
2023-05-11T09:32:54.604Z,5.93
2023-05-11T09:35:29.747Z,6.13
2023-05-11T09:38:12.138Z,7.82
2023-05-11T09:40:43.223Z,4.95
2023-05-11T09:43:20.876Z,6.15
2023-05-11T09:45:48.794Z,21.48
2023-05-11T09:48:21.084Z,8.43
2023-05-11T09:50:48.721Z,6.13
2023-05-11T09:53:15.154Z,4.35
2023-05-11T09:55:55.403Z,5.90
2023-05-11T09:58:22.094Z,7.68
2023-05-11T10:00:52.563Z,6.00
2023-05-11T10:03:20.163Z,4.80
2023-05-11T10:05:57.979Z,5.63
2023-05-11T10:08:34.205Z,5.50
2023-05-11T10:11:02.577Z,9.68
2023-05-11T10:13:32.110Z,8.10
2023-05-11T10:15:59.232Z,11.88
2023-05-11T10:18:26.453Z,11.05
2023-05-11T10:20:53.403Z,5.13
2023-05-11T10:23:20.976Z,6.40
2023-05-11T10:25:48.017Z,3.92
2023-05-11T10:28:15.066Z,6.55
2023-05-11T10:30:41.942Z,4.97
2023-05-11T10:33:09.538Z,7.57
2023-05-11T10:35:38.378Z,7.20
2023-05-11T10:38:06.617Z,5.18
2023-05-11T10:40:38.454Z,6.80
2023-05-11T10:43:08.447Z,4.38
2023-05-11T10:45:59.877Z,9.48
2023-05-11T10:48:54.038Z,5.85
2023-05-11T10:51:37.976Z,5.28
2023-05-11T10:54:18.528Z,4.80
2023-05-11T10:57:00.306Z,6.70
2023-05-11T11:00:09.760Z,7.70
2023-05-11T11:02:37.487Z,4.88
2023-05-11T11:05:10.587Z,5.93
2023-05-11T11:08:07.111Z,6.63
2023-05-11T11:10:35.924Z,6.78
2023-05-11T11:13:07.939Z,5.10
2023-05-11T11:15:52.797Z,8.25
2023-05-11T11:18:27.314Z,5.70
2023-05-11T11:20:55.825Z,7.63
2023-05-11T11:23:41.167Z,5.30
2023-05-11T11:26:09.952Z,4.32
2023-05-11T11:28:54.371Z,8.30
2023-05-11T11:31:27.960Z,4.72
2023-05-11T11:33:58.779Z,5.72
2023-05-11T11:36:58.491Z,6.95
2023-05-11T11:39:30.398Z,8.90
2023-05-11T11:42:04.804Z,4.13
2023-05-11T11:44:31.390Z,9.68
2023-05-11T11:47:14.268Z,7.40
2023-05-11T11:49:43.212Z,6.60
2023-05-11T11:52:31.190Z,4.85
2023-05-11T11:55:02.339Z,2.75
2023-05-11T11:57:34.734Z,4.60
2023-05-11T12:00:07.212Z,6.63
2023-05-11T12:02:34.914Z,4.03
2023-05-11T12:05:09.548Z,6.28
2023-05-11T12:07:38.843Z,3.95
2023-05-11T12:10:05.658Z,4.38
2023-05-11T12:12:32.341Z,10.32
2023-05-11T12:14:59.880Z,5.75
2023-05-11T12:17:29.389Z,5.65
2023-05-11T12:20:12.035Z,6.57
2023-05-11T12:22:38.392Z,10.48
2023-05-11T12:25:08.817Z,5.53
2023-05-11T12:27:35.187Z,8.20
2023-05-11T12:30:01.822Z,7.72
2023-05-11T12:32:29.221Z,9.05
2023-05-11T12:35:04.484Z,8.93
2023-05-11T12:37:31.502Z,5.25
2023-05-11T12:39:58.614Z,11.18
2023-05-11T12:42:25.313Z,8.07
2023-05-11T12:44:52.252Z,5.72
2023-05-11T12:47:18.828Z,9.13
2023-05-11T12:49:45.306Z,4.82
2023-05-11T12:52:13.486Z,5.00
2023-05-11T12:54:43.388Z,8.05
2023-05-11T12:57:24.383Z,7.45
2023-05-11T13:00:05.987Z,5.53
2023-05-11T13:02:32.443Z,3.28
2023-05-11T13:04:59.020Z,6.50
2023-05-11T13:07:27.532Z,6.18
2023-05-11T13:09:58.383Z,4.10
2023-05-11T13:12:25.720Z,8.27
2023-05-11T13:15:08.983Z,5.10
2023-05-11T13:17:37.414Z,5.90
2023-05-11T13:20:34.634Z,4.38
2023-05-11T13:23:08.279Z,6.45
2023-05-11T13:25:53.055Z,3.10
2023-05-11T13:28:22.082Z,7.50
2023-05-11T13:30:48.732Z,4.47
2023-05-11T13:33:15.384Z,2.72
2023-05-11T13:35:43.227Z,5.57
2023-05-11T13:38:10.658Z,3.60
2023-05-11T13:40:37.896Z,7.40
2023-05-11T13:43:04.587Z,7.10
2023-05-11T13:45:30.993Z,3.42
2023-05-11T13:47:57.413Z,5.25
2023-05-11T13:50:25.132Z,8.13
2023-05-11T13:52:54.522Z,4.97
2023-05-11T13:55:21.608Z,5.07
2023-05-11T13:57:48.269Z,7.25
2023-05-11T14:00:15.443Z,5.30
2023-05-11T14:02:41.894Z,2.70
2023-05-11T14:05:08.926Z,7.90
2023-05-11T14:07:46.268Z,4.38
2023-05-11T14:10:14.845Z,7.63
2023-05-11T14:12:41.385Z,4.18
2023-05-11T14:15:08.468Z,5.57
2023-05-11T14:17:34.929Z,3.15
2023-05-11T14:20:01.467Z,8.02
2023-05-11T14:22:29.098Z,6.18
2023-05-11T14:24:56.076Z,5.18
2023-05-11T14:27:23.357Z,6.43
2023-05-11T14:29:52.035Z,5.82
2023-05-11T14:32:19.410Z,2.65
2023-05-11T14:34:48.981Z,4.90
2023-05-11T14:37:15.741Z,3.42
2023-05-11T14:39:47.772Z,8.18
2023-05-11T14:42:14.408Z,10.32
2023-05-11T14:44:41.666Z,7.28
2023-05-11T14:47:08.726Z,3.22
2023-05-11T14:49:35.188Z,5.20
2023-05-11T14:52:01.902Z,7.03
2023-05-11T14:54:28.288Z,4.25
2023-05-11T14:56:56.179Z,6.13
2023-05-11T14:59:26.086Z,6.50
2023-05-11T15:01:52.476Z,2.40
2023-05-11T15:04:19.251Z,4.35
2023-05-11T15:06:46.139Z,5.72
2023-05-11T15:09:12.586Z,4.68
2023-05-11T15:11:39.017Z,5.18
2023-05-11T15:14:06.880Z,5.60
2023-05-11T15:16:33.309Z,4.13
2023-05-11T15:18:59.937Z,6.90
2023-05-11T15:21:27.459Z,3.80
2023-05-11T15:23:53.846Z,4.85
2023-05-11T15:26:21.444Z,5.88
2023-05-11T15:28:47.869Z,7.07
2023-05-11T15:31:14.678Z,4.60
2023-05-11T15:33:41.420Z,3.75
2023-05-11T15:36:13.192Z,3.83
2023-05-11T15:38:40.250Z,3.83
2023-05-11T15:41:07.680Z,5.15
2023-05-11T15:43:34.087Z,4.35
2023-05-11T15:46:00.549Z,3.78
2023-05-11T15:48:26.949Z,5.78
2023-05-11T15:50:53.337Z,4.13
2023-05-11T15:53:19.777Z,8.50
2023-05-11T15:55:50.515Z,5.93
2023-05-11T15:58:18.005Z,11.60
2023-05-11T16:00:44.502Z,5.47
2023-05-11T16:03:11.007Z,4.13
2023-05-11T16:05:38.357Z,6.50
2023-05-11T16:08:06.355Z,4.93
2023-05-11T16:10:33.006Z,4.32
2023-05-11T16:12:59.469Z,3.40
2023-05-11T16:15:26.080Z,4.65
2023-05-11T16:17:52.581Z,3.08
2023-05-11T16:20:19.186Z,9.20
2023-05-11T16:22:47.482Z,3.80
2023-05-11T16:25:13.964Z,3.83
2023-05-11T16:27:40.490Z,7.00
2023-05-11T16:30:18.276Z,3.58
2023-05-11T16:32:50.729Z,3.97
2023-05-11T16:35:17.141Z,4.97
2023-05-11T16:37:43.516Z,3.28
2023-05-11T16:40:09.966Z,3.65
2023-05-11T16:42:36.353Z,7.72
2023-05-11T16:45:02.705Z,6.55
2023-05-11T16:47:29.094Z,9.05
2023-05-11T16:49:55.541Z,4.50
2023-05-11T16:52:21.914Z,5.03
2023-05-11T16:54:48.298Z,4.93
2023-05-11T16:57:14.659Z,5.55
2023-05-11T16:59:41.265Z,6.97
2023-05-11T17:02:08.233Z,4.35
2023-05-11T17:04:34.683Z,3.50
2023-05-11T17:07:01.140Z,4.20
2023-05-11T17:09:27.973Z,4.15
2023-05-11T17:11:55.206Z,3.10
2023-05-11T17:14:21.583Z,4.13
2023-05-11T17:16:48.069Z,6.47
2023-05-11T17:19:14.557Z,3.72
2023-05-11T17:21:41.289Z,7.07
2023-05-11T17:24:08.105Z,5.20
2023-05-11T17:26:46.286Z,5.18
2023-05-11T17:29:15.450Z,5.07
2023-05-11T17:31:42.146Z,6.40
2023-05-11T17:34:09.273Z,4.47
2023-05-11T17:36:36.122Z,7.55
2023-05-11T17:39:02.589Z,3.17
2023-05-11T17:41:28.983Z,7.60
2023-05-11T17:43:55.399Z,4.78
2023-05-11T17:46:21.885Z,4.18
2023-05-11T17:48:48.409Z,5.10
2023-05-11T17:51:14.803Z,4.72
2023-05-11T17:53:41.855Z,4.80
2023-05-11T17:56:09.925Z,5.20
2023-05-11T17:58:36.336Z,5.35
2023-05-11T18:01:15.614Z,4.68
2023-05-11T18:03:42.360Z,5.70
2023-05-11T18:06:09.005Z,2.92
2023-05-11T18:08:36.667Z,5.53
2023-05-11T18:11:03.244Z,4.28
2023-05-11T18:13:30.930Z,6.00
2023-05-11T18:15:58.450Z,5.07
2023-05-11T18:18:25.151Z,3.53
2023-05-11T18:20:51.660Z,4.72
2023-05-11T18:23:18.559Z,4.20
2023-05-11T18:25:44.967Z,3.60
2023-05-11T18:28:11.408Z,6.75
2023-05-11T18:30:42.009Z,3.70
2023-05-11T18:33:08.445Z,7.85
2023-05-11T18:35:35.136Z,8.82
2023-05-11T18:38:04.120Z,7.82
2023-05-11T18:40:30.510Z,5.40
2023-05-11T18:42:56.903Z,6.15
2023-05-11T18:45:23.274Z,4.25
2023-05-11T18:47:50.268Z,5.63
2023-05-11T18:50:16.763Z,6.43
2023-05-11T18:52:43.186Z,4.15
2023-05-11T18:55:10.136Z,6.78
2023-05-11T18:57:38.039Z,3.65
2023-05-11T19:00:05.440Z,5.05
2023-05-11T19:02:33.065Z,7.20
2023-05-11T19:04:59.517Z,5.70
2023-05-11T19:07:25.947Z,7.75
2023-05-11T19:09:52.617Z,9.52
2023-05-11T19:12:19.689Z,4.32
2023-05-11T19:14:47.482Z,9.30
2023-05-11T19:17:14.066Z,4.72
2023-05-11T19:19:40.534Z,5.47
2023-05-11T19:22:07.746Z,4.45
2023-05-11T19:24:35.683Z,4.47
2023-05-11T19:27:07.453Z,6.75
2023-05-11T19:29:35.231Z,7.97
2023-05-11T19:32:02.007Z,7.30
2023-05-11T19:34:28.502Z,6.53
2023-05-11T19:36:54.876Z,7.90
2023-05-11T19:39:21.298Z,6.80
2023-05-11T19:41:47.674Z,6.07
2023-05-11T19:44:14.045Z,7.05
2023-05-11T19:46:46.230Z,5.80
2023-05-11T19:49:14.893Z,5.10
2023-05-11T19:51:41.252Z,6.93
2023-05-11T19:54:07.794Z,5.80
2023-05-11T19:56:34.175Z,10.13
2023-05-11T19:59:01.222Z,6.60
2023-05-11T20:01:27.665Z,5.20
2023-05-11T20:03:54.222Z,5.47
2023-05-11T20:06:20.735Z,9.02
2023-05-11T20:08:48.832Z,7.20
2023-05-11T20:11:15.398Z,8.27
2023-05-11T20:13:42.396Z,7.45
2023-05-11T20:16:08.876Z,5.85
2023-05-11T20:18:35.333Z,5.93
2023-05-11T20:21:01.759Z,7.50
2023-05-11T20:23:28.164Z,4.88
2023-05-11T20:25:55.069Z,6.28
2023-05-11T20:28:22.097Z,4.82
2023-05-11T20:30:48.714Z,5.40
2023-05-11T20:35:44.427Z,6.95
2023-05-11T20:38:10.804Z,5.65
2023-05-11T20:40:37.182Z,4.57
2023-05-11T20:43:03.646Z,5.25
2023-05-11T20:45:30.037Z,5.38
2023-05-11T20:47:56.477Z,4.65
2023-05-11T20:50:23.428Z,5.88
2023-05-11T20:52:49.964Z,6.60
2023-05-11T20:55:17.721Z,5.30
2023-05-11T20:57:44.233Z,5.75
2023-05-11T21:00:11.432Z,5.10
2023-05-11T21:02:37.918Z,6.45
2023-05-11T21:05:04.467Z,7.55
2023-05-11T21:07:30.932Z,8.00
2023-05-11T21:09:57.376Z,5.00
2023-05-11T21:12:23.772Z,6.57
2023-05-11T21:14:50.199Z,7.30
2023-05-11T21:17:16.744Z,5.10
2023-05-11T21:19:43.226Z,6.50
2023-05-11T21:22:09.636Z,4.80
2023-05-11T21:24:37.588Z,5.10
2023-05-11T21:27:04.201Z,6.97
2023-05-11T21:29:30.627Z,6.05
2023-05-11T21:31:56.993Z,5.30
2023-05-11T21:34:23.368Z,8.45
2023-05-11T21:36:49.777Z,7.28
2023-05-11T21:39:16.154Z,6.13
2023-05-11T21:41:42.532Z,7.22
2023-05-11T21:44:08.894Z,11.68
2023-05-11T21:46:35.428Z,5.10
2023-05-11T21:49:01.881Z,7.53
2023-05-11T21:51:28.274Z,4.50
2023-05-11T21:53:57.561Z,7.68
2023-05-11T21:56:25.026Z,8.77
2023-05-11T21:58:51.414Z,5.70
2023-05-11T22:01:17.805Z,5.22
2023-05-11T22:03:44.352Z,8.27
2023-05-11T22:06:10.903Z,6.50
2023-05-11T22:08:37.366Z,4.53
2023-05-11T22:11:04.100Z,8.02
2023-05-11T22:13:30.476Z,5.35
2023-05-11T22:15:56.891Z,6.40
2023-05-11T22:18:23.409Z,6.22
2023-05-11T22:20:49.828Z,7.68
2023-05-11T22:23:16.211Z,7.05
2023-05-11T22:25:42.600Z,7.43
2023-05-11T22:28:08.999Z,7.97
2023-05-11T22:30:37.362Z,4.90
2023-05-11T22:33:03.906Z,7.15
2023-05-11T22:35:30.406Z,6.00
2023-05-11T22:37:56.790Z,10.02
2023-05-11T22:40:23.196Z,8.35
2023-05-11T22:42:49.564Z,6.85
2023-05-11T22:45:16.430Z,11.02
2023-05-11T22:47:42.888Z,6.20
2023-05-11T22:50:11.878Z,9.93
2023-05-11T22:52:38.608Z,7.22
2023-05-11T22:55:05.519Z,11.48
2023-05-11T22:57:31.888Z,8.73
2023-05-11T22:59:58.248Z,11.00
2023-05-11T23:02:24.647Z,8.93
2023-05-11T23:04:52.408Z,9.27
2023-05-11T23:07:19.445Z,10.27
2023-05-11T23:09:45.835Z,8.10
2023-05-11T23:12:12.756Z,7.18
2023-05-11T23:14:39.150Z,7.00
2023-05-11T23:17:05.533Z,7.68
2023-05-11T23:19:32.081Z,7.18
2023-05-11T23:21:58.607Z,5.68
2023-05-11T23:24:24.997Z,9.02
2023-05-11T23:26:51.361Z,10.43
2023-05-11T23:29:17.755Z,9.55
2023-05-11T23:31:44.192Z,6.38
2023-05-11T23:34:10.577Z,11.35
2023-05-11T23:36:36.951Z,7.70
2023-05-11T23:39:03.351Z,8.55
2023-05-11T23:41:29.720Z,9.98
2023-05-11T23:43:56.076Z,10.57
2023-05-11T23:46:22.436Z,8.00
2023-05-11T23:48:48.809Z,7.25
2023-05-11T23:51:16.464Z,6.90
2023-05-11T23:53:42.924Z,8.50
2023-05-11T23:56:09.320Z,8.90
2023-05-11T23:58:35.729Z,7.80
